sensor_id;sensor_type;location;lat;lon;timestamp;pressure;altitude;pressure_sealevel;temperature;humidity
73860;BME280;62197;51.632;13.700;2023-04-29T00:01:51;99672.84;;;11.41;100.00
73860;BME280;62197;51.632;13.700;2023-04-29T00:04:17;99680.00;;;11.42;100.00
73860;BME280;62197;51.632;13.700;2023-04-29T00:06:42;99672.53;;;11.38;100.00
73860;BME280;62197;51.632;13.700;2023-04-29T00:09:07;99672.47;;;11.28;100.00
73860;BME280;62197;51.632;13.700;2023-04-29T00:11:32;99673.22;;;11.18;100.00
73860;BME280;62197;51.632;13.700;2023-04-29T00:13:58;99669.53;;;11.08;100.00
73860;BME280;62197;51.632;13.700;2023-04-29T00:16:23;99661.53;;;11.11;100.00
73860;BME280;62197;51.632;13.700;2023-04-29T00:18:49;99659.88;;;11.05;100.00
73860;BME280;62197;51.632;13.700;2023-04-29T00:21:14;99655.97;;;11.01;100.00
73860;BME280;62197;51.632;13.700;2023-04-29T00:23:40;99649.00;;;10.94;100.00
73860;BME280;62197;51.632;13.700;2023-04-29T00:26:05;99662.25;;;10.92;100.00
73860;BME280;62197;51.632;13.700;2023-04-29T00:28:31;99661.09;;;10.87;100.00
73860;BME280;62197;51.632;13.700;2023-04-29T00:30:56;99667.13;;;10.84;100.00
73860;BME280;62197;51.632;13.700;2023-04-29T00:33:22;99663.28;;;10.85;100.00
73860;BME280;62197;51.632;13.700;2023-04-29T00:35:47;99655.50;;;10.77;100.00
73860;BME280;62197;51.632;13.700;2023-04-29T00:38:12;99648.03;;;10.78;100.00
73860;BME280;62197;51.632;13.700;2023-04-29T00:40:38;99660.19;;;10.82;100.00
73860;BME280;62197;51.632;13.700;2023-04-29T00:43:04;99657.19;;;10.83;100.00
73860;BME280;62197;51.632;13.700;2023-04-29T00:45:29;99656.66;;;10.86;100.00
73860;BME280;62197;51.632;13.700;2023-04-29T00:47:55;99648.38;;;10.86;100.00
73860;BME280;62197;51.632;13.700;2023-04-29T00:50:21;99657.28;;;10.94;100.00
73860;BME280;62197;51.632;13.700;2023-04-29T00:52:46;99663.88;;;10.93;100.00
73860;BME280;62197;51.632;13.700;2023-04-29T00:55:12;99663.16;;;11.02;100.00
73860;BME280;62197;51.632;13.700;2023-04-29T00:57:37;99669.53;;;11.08;100.00
73860;BME280;62197;51.632;13.700;2023-04-29T01:00:04;99660.09;;;11.04;100.00
73860;BME280;62197;51.632;13.700;2023-04-29T01:02:30;99671.78;;;11.11;100.00
73860;BME280;62197;51.632;13.700;2023-04-29T01:04:55;99663.22;;;11.12;100.00
73860;BME280;62197;51.632;13.700;2023-04-29T01:07:47;99655.72;;;11.08;100.00
73860;BME280;62197;51.632;13.700;2023-04-29T01:10:23;99656.84;;;11.07;100.00
73860;BME280;62197;51.632;13.700;2023-04-29T01:13:09;99656.00;;;11.06;100.00
73860;BME280;62197;51.632;13.700;2023-04-29T01:15:41;99656.34;;;11.15;100.00
73860;BME280;62197;51.632;13.700;2023-04-29T01:18:13;99659.69;;;11.17;100.00
73860;BME280;62197;51.632;13.700;2023-04-29T01:20:40;99657.16;;;11.15;100.00
73860;BME280;62197;51.632;13.700;2023-04-29T01:23:06;99657.16;;;11.15;100.00
73860;BME280;62197;51.632;13.700;2023-04-29T01:25:31;99653.31;;;11.16;100.00
73860;BME280;62197;51.632;13.700;2023-04-29T01:28:04;99665.81;;;11.24;100.00
73860;BME280;62197;51.632;13.700;2023-04-29T01:30:44;99651.41;;;11.22;100.00
73860;BME280;62197;51.632;13.700;2023-04-29T01:38:46;99658.09;;;11.26;100.00
73860;BME280;62197;51.632;13.700;2023-04-29T01:41:30;99649.22;;;11.24;100.00
73860;BME280;62197;51.632;13.700;2023-04-29T01:44:01;99645.13;;;11.26;100.00
73860;BME280;62197;51.632;13.700;2023-04-29T01:46:28;99646.75;;;11.22;100.00
73860;BME280;62197;51.632;13.700;2023-04-29T01:48:54;99655.84;;;11.23;100.00
73860;BME280;62197;51.632;13.700;2023-04-29T01:51:20;99658.88;;;11.21;100.00
73860;BME280;62197;51.632;13.700;2023-04-29T01:53:45;99653.13;;;11.28;100.00
73860;BME280;62197;51.632;13.700;2023-04-29T01:56:11;99658.09;;;11.26;100.00
73860;BME280;62197;51.632;13.700;2023-04-29T01:58:36;99652.78;;;11.19;100.00
73860;BME280;62197;51.632;13.700;2023-04-29T02:01:02;99658.59;;;11.23;100.00
73860;BME280;62197;51.632;13.700;2023-04-29T02:03:27;99668.53;;;11.19;100.00
73860;BME280;62197;51.632;13.700;2023-04-29T02:05:52;99666.19;;;11.06;100.00
73860;BME280;62197;51.632;13.700;2023-04-29T02:08:18;99665.03;;;10.97;100.00
73860;BME280;62197;51.632;13.700;2023-04-29T02:10:53;99671.81;;;10.84;100.00
73860;BME280;62197;51.632;13.700;2023-04-29T02:13:18;99670.84;;;10.68;100.00
73860;BME280;62197;51.632;13.700;2023-04-29T02:15:44;99668.03;;;10.63;100.00
73860;BME280;62197;51.632;13.700;2023-04-29T02:18:09;99669.03;;;10.52;100.00
73860;BME280;62197;51.632;13.700;2023-04-29T02:20:34;99674.19;;;10.44;100.00
73860;BME280;62197;51.632;13.700;2023-04-29T02:23:00;99668.88;;;10.37;100.00
73860;BME280;62197;51.632;13.700;2023-04-29T02:25:25;99674.44;;;10.42;100.00
73860;BME280;62197;51.632;13.700;2023-04-29T02:27:50;99670.03;;;10.41;100.00
73860;BME280;62197;51.632;13.700;2023-04-29T02:30:16;99676.09;;;10.43;100.00
73860;BME280;62197;51.632;13.700;2023-04-29T02:32:41;99666.47;;;10.46;100.00
73860;BME280;62197;51.632;13.700;2023-04-29T02:35:07;99662.88;;;10.45;100.00
73860;BME280;62197;51.632;13.700;2023-04-29T02:37:32;99669.53;;;10.49;100.00
73860;BME280;62197;51.632;13.700;2023-04-29T02:39:58;99678.09;;;10.48;100.00
73860;BME280;62197;51.632;13.700;2023-04-29T02:42:23;99669.53;;;10.49;100.00
73860;BME280;62197;51.632;13.700;2023-04-29T02:44:48;99674.56;;;10.52;100.00
73860;BME280;62197;51.632;13.700;2023-04-29T02:47:14;99671.81;;;10.52;100.00
73860;BME280;62197;51.632;13.700;2023-04-29T02:49:39;99671.25;;;10.55;100.00
73860;BME280;62197;51.632;13.700;2023-04-29T02:52:04;99668.00;;;10.58;100.00
73860;BME280;62197;51.632;13.700;2023-04-29T02:54:30;99674.88;;;10.56;100.00
73860;BME280;62197;51.632;13.700;2023-04-29T02:56:55;99665.25;;;10.58;100.00
73860;BME280;62197;51.632;13.700;2023-04-29T02:59:21;99667.47;;;10.61;100.00
73860;BME280;62197;51.632;13.700;2023-04-29T03:01:46;99669.72;;;10.64;100.00
73860;BME280;62197;51.632;13.700;2023-04-29T03:04:12;99668.31;;;10.62;100.00
73860;BME280;62197;51.632;13.700;2023-04-29T03:06:37;99669.72;;;10.64;100.00
73860;BME280;62197;51.632;13.700;2023-04-29T03:09:03;99660.03;;;10.62;100.00
73860;BME280;62197;51.632;13.700;2023-04-29T03:11:28;99651.44;;;10.58;100.00
73860;BME280;62197;51.632;13.700;2023-04-29T03:13:53;99661.19;;;10.66;100.00
73860;BME280;62197;51.632;13.700;2023-04-29T03:16:19;99658.91;;;10.63;100.00
73860;BME280;62197;51.632;13.700;2023-04-29T03:18:45;99642.06;;;10.59;100.00
73860;BME280;62197;51.632;13.700;2023-04-29T03:21:11;99651.16;;;10.55;100.00
73860;BME280;62197;51.632;13.700;2023-04-29T03:23:36;99654.22;;;10.58;100.00
73860;BME280;62197;51.632;13.700;2023-04-29T03:26:03;99655.28;;;10.57;100.00
73860;BME280;62197;51.632;13.700;2023-04-29T03:28:29;99644.53;;;10.56;100.00
73860;BME280;62197;51.632;13.700;2023-04-29T03:30:54;99657.53;;;10.60;100.00
73860;BME280;62197;51.632;13.700;2023-04-29T03:33:20;99656.44;;;10.61;100.00
73860;BME280;62197;51.632;13.700;2023-04-29T03:35:46;99651.44;;;10.58;100.00
73860;BME280;62197;51.632;13.700;2023-04-29T03:38:11;99661.44;;;10.64;100.00
73860;BME280;62197;51.632;13.700;2023-04-29T03:40:36;99650.66;;;10.63;100.00
73860;BME280;62197;51.632;13.700;2023-04-29T03:43:02;99659.19;;;10.61;100.00
73860;BME280;62197;51.632;13.700;2023-04-29T03:45:28;99644.31;;;10.62;100.00
73860;BME280;62197;51.632;13.700;2023-04-29T03:47:53;99662.56;;;10.68;100.00
73860;BME280;62197;51.632;13.700;2023-04-29T03:50:19;99655.09;;;10.64;100.00
73860;BME280;62197;51.632;13.700;2023-04-29T03:52:44;99656.50;;;10.66;100.00
73860;BME280;62197;51.632;13.700;2023-04-29T03:55:09;99662.25;;;10.65;100.00
73860;BME280;62197;51.632;13.700;2023-04-29T03:57:37;99659.75;;;10.63;100.00
73860;BME280;62197;51.632;13.700;2023-04-29T04:00:03;99665.59;;;10.67;100.00
73860;BME280;62197;51.632;13.700;2023-04-29T04:02:28;99665.66;;;10.72;100.00
73860;BME280;62197;51.632;13.700;2023-04-29T04:04:53;99671.97;;;10.72;100.00
73860;BME280;62197;51.632;13.700;2023-04-29T04:07:19;99670.13;;;10.78;100.00
73860;BME280;62197;51.632;13.700;2023-04-29T04:09:44;99670.38;;;10.76;100.00
73860;BME280;62197;51.632;13.700;2023-04-29T04:12:10;99672.03;;;10.77;100.00
73860;BME280;62197;51.632;13.700;2023-04-29T04:14:35;99671.97;;;10.72;100.00
73860;BME280;62197;51.632;13.700;2023-04-29T04:17:00;99666.47;;;10.72;100.00
73860;BME280;62197;51.632;13.700;2023-04-29T04:19:26;99682.22;;;10.72;100.00
73860;BME280;62197;51.632;13.700;2023-04-29T04:21:53;99664.81;;;10.71;100.00
73860;BME280;62197;51.632;13.700;2023-04-29T04:24:19;99683.59;;;10.74;100.00
73860;BME280;62197;51.632;13.700;2023-04-29T04:26:44;99680.31;;;10.77;100.00
73860;BME280;62197;51.632;13.700;2023-04-29T04:29:10;99678.44;;;10.83;100.00
73860;BME280;62197;51.632;13.700;2023-04-29T04:31:35;99668.75;;;10.80;100.00
73860;BME280;62197;51.632;13.700;2023-04-29T04:34:01;99663.69;;;10.72;100.00
73860;BME280;62197;51.632;13.700;2023-04-29T04:36:26;99678.72;;;10.81;100.00
73860;BME280;62197;51.632;13.700;2023-04-29T04:38:52;99675.94;;;10.81;100.00
73860;BME280;62197;51.632;13.700;2023-04-29T04:41:17;99679.28;;;10.83;100.00
73860;BME280;62197;51.632;13.700;2023-04-29T04:43:43;99684.00;;;10.88;100.00
73860;BME280;62197;51.632;13.700;2023-04-29T04:46:10;99673.78;;;10.88;100.00
73860;BME280;62197;51.632;13.700;2023-04-29T04:48:35;99675.97;;;10.86;100.00
73860;BME280;62197;51.632;13.700;2023-04-29T04:51:11;99678.06;;;11.01;100.00
73860;BME280;62197;51.632;13.700;2023-04-29T04:53:37;99683.03;;;11.04;100.00
73860;BME280;62197;51.632;13.700;2023-04-29T04:56:03;99682.25;;;11.09;100.00
73860;BME280;62197;51.632;13.700;2023-04-29T04:58:29;99681.69;;;11.07;100.00
73860;BME280;62197;51.632;13.700;2023-04-29T05:00:56;99671.22;;;11.09;100.00
73860;BME280;62197;51.632;13.700;2023-04-29T05:03:21;99684.47;;;11.12;100.00
73860;BME280;62197;51.632;13.700;2023-04-29T05:05:52;99686.66;;;11.10;100.00
73860;BME280;62197;51.632;13.700;2023-04-29T05:08:18;99685.63;;;11.16;100.00
73860;BME280;62197;51.632;13.700;2023-04-29T05:10:43;99685.09;;;11.19;100.00
73860;BME280;62197;51.632;13.700;2023-04-29T05:13:09;99683.50;;;11.28;100.00
73860;BME280;62197;51.632;13.700;2023-04-29T05:15:34;99692.38;;;11.30;100.00
73860;BME280;62197;51.632;13.700;2023-04-29T05:18:00;99686.59;;;11.36;100.00
73860;BME280;62197;51.632;13.700;2023-04-29T05:20:25;99693.25;;;11.40;100.00
73860;BME280;62197;51.632;13.700;2023-04-29T05:22:50;99695.22;;;11.45;100.00
73860;BME280;62197;51.632;13.700;2023-04-29T05:25:16;99697.97;;;11.40;100.00
73860;BME280;62197;51.632;13.700;2023-04-29T05:27:41;99699.63;;;11.46;100.00
73860;BME280;62197;51.632;13.700;2023-04-29T05:30:07;99704.09;;;11.47;100.00
73860;BME280;62197;51.632;13.700;2023-04-29T05:32:32;99703.03;;;11.53;100.00
73860;BME280;62197;51.632;13.700;2023-04-29T05:34:58;99710.88;;;11.66;100.00
73860;BME280;62197;51.632;13.700;2023-04-29T05:37:23;99712.28;;;11.68;100.00
73860;BME280;62197;51.632;13.700;2023-04-29T05:39:54;99708.69;;;11.73;100.00
73860;BME280;62197;51.632;13.700;2023-04-29T05:42:20;99701.81;;;11.75;100.00
73860;BME280;62197;51.632;13.700;2023-04-29T05:44:45;99711.44;;;11.68;100.00
73860;BME280;62197;51.632;13.700;2023-04-29T05:47:11;99709.13;;;11.60;100.00
73860;BME280;62197;51.632;13.700;2023-04-29T05:49:36;99698.00;;;11.50;100.00
73860;BME280;62197;51.632;13.700;2023-04-29T05:52:03;99716.13;;;11.67;100.00
73860;BME280;62197;51.632;13.700;2023-04-29T05:54:33;99718.00;;;11.62;100.00
73860;BME280;62197;51.632;13.700;2023-04-29T05:56:59;99720.75;;;11.62;100.00
73860;BME280;62197;51.632;13.700;2023-04-29T05:59:29;99717.81;;;11.68;100.00
73860;BME280;62197;51.632;13.700;2023-04-29T06:01:58;99719.22;;;11.76;100.00
73860;BME280;62197;51.632;13.700;2023-04-29T06:04:24;99723.13;;;11.80;100.00
73860;BME280;62197;51.632;13.700;2023-04-29T06:06:51;99722.31;;;11.85;100.00
73860;BME280;62197;51.632;13.700;2023-04-29T06:09:17;99723.19;;;11.95;100.00
73860;BME280;62197;51.632;13.700;2023-04-29T06:11:43;99729.88;;;11.99;100.00
73860;BME280;62197;51.632;13.700;2023-04-29T06:14:09;99723.50;;;11.99;100.00
73860;BME280;62197;51.632;13.700;2023-04-29T06:16:35;99728.25;;;12.08;100.00
73860;BME280;62197;51.632;13.700;2023-04-29T06:19:00;99731.56;;;12.10;100.00
73860;BME280;62197;51.632;13.700;2023-04-29T06:21:26;99727.78;;;12.31;100.00
73860;BME280;62197;51.632;13.700;2023-04-29T06:23:52;99734.44;;;12.35;100.00
73860;BME280;62197;51.632;13.700;2023-04-29T06:26:18;99735.56;;;12.39;100.00
73860;BME280;62197;51.632;13.700;2023-04-29T06:28:45;99728.44;;;12.48;100.00
73860;BME280;62197;51.632;13.700;2023-04-29T06:31:10;99742.00;;;12.55;100.00
73860;BME280;62197;51.632;13.700;2023-04-29T06:33:36;99735.06;;;12.52;100.00
73860;BME280;62197;51.632;13.700;2023-04-29T06:36:01;99737.81;;;12.52;100.00
73860;BME280;62197;51.632;13.700;2023-04-29T06:38:27;99742.78;;;12.50;100.00
73860;BME280;62197;51.632;13.700;2023-04-29T06:40:52;99743.06;;;12.49;100.00
73860;BME280;62197;51.632;13.700;2023-04-29T06:43:18;99742.56;;;12.57;100.00
73860;BME280;62197;51.632;13.700;2023-04-29T06:45:46;99745.31;;;12.62;100.00
73860;BME280;62197;51.632;13.700;2023-04-29T06:48:12;99750.91;;;12.67;100.00
73860;BME280;62197;51.632;13.700;2023-04-29T06:50:37;99750.66;;;12.74;100.00
73860;BME280;62197;51.632;13.700;2023-04-29T06:53:02;99742.91;;;12.81;100.00
73860;BME280;62197;51.632;13.700;2023-04-29T06:55:28;99742.63;;;12.82;100.00
73860;BME280;62197;51.632;13.700;2023-04-29T06:57:53;99748.19;;;12.97;100.00
73860;BME280;62197;51.632;13.700;2023-04-29T07:00:19;99758.78;;;13.10;100.00
73860;BME280;62197;51.632;13.700;2023-04-29T07:02:45;99749.63;;;13.25;100.00
73860;BME280;62197;51.632;13.700;2023-04-29T07:05:10;99749.28;;;13.01;100.00
73860;BME280;62197;51.632;13.700;2023-04-29T07:07:36;99748.53;;;13.21;100.00
73860;BME280;62197;51.632;13.700;2023-04-29T07:10:01;99750.69;;;12.94;100.00
73860;BME280;62197;51.632;13.700;2023-04-29T07:12:27;99753.97;;;12.81;100.00
73860;BME280;62197;51.632;13.700;2023-04-29T07:14:52;99756.78;;;12.96;100.00
73860;BME280;62197;51.632;13.700;2023-04-29T07:17:17;99753.44;;;12.94;100.00
73860;BME280;62197;51.632;13.700;2023-04-29T07:19:43;99758.97;;;12.94;100.00
73860;BME280;62197;51.632;13.700;2023-04-29T07:22:08;99760.03;;;12.78;100.00
73860;BME280;62197;51.632;13.700;2023-04-29T07:24:34;99758.97;;;12.89;100.00
73860;BME280;62197;51.632;13.700;2023-04-29T07:26:59;99747.41;;;13.07;100.00
73860;BME280;62197;51.632;13.700;2023-04-29T07:29:24;99757.38;;;13.08;100.00
73860;BME280;62197;51.632;13.700;2023-04-29T07:31:50;99763.22;;;13.06;100.00
73860;BME280;62197;51.632;13.700;2023-04-29T07:34:15;99768.38;;;12.88;100.00
73860;BME280;62197;51.632;13.700;2023-04-29T07:36:40;99762.53;;;12.74;100.00
73860;BME280;62197;51.632;13.700;2023-04-29T07:39:06;99771.25;;;13.18;100.00
73860;BME280;62197;51.632;13.700;2023-04-29T07:41:31;99783.97;;;13.09;100.00
73860;BME280;62197;51.632;13.700;2023-04-29T07:43:57;99781.44;;;13.02;100.00
73860;BME280;62197;51.632;13.700;2023-04-29T07:46:22;99768.34;;;12.73;100.00
73860;BME280;62197;51.632;13.700;2023-04-29T07:48:47;99779.94;;;12.59;100.00
73860;BME280;62197;51.632;13.700;2023-04-29T07:51:13;99792.13;;;12.63;100.00
73860;BME280;62197;51.632;13.700;2023-04-29T07:53:39;99792.13;;;12.63;100.00
73860;BME280;62197;51.632;13.700;2023-04-29T07:56:08;99795.88;;;13.09;100.00
73860;BME280;62197;51.632;13.700;2023-04-29T07:58:33;99802.00;;;13.41;100.00
73860;BME280;62197;51.632;13.700;2023-04-29T08:01:08;99800.06;;;13.32;100.00
73860;BME280;62197;51.632;13.700;2023-04-29T08:03:34;99795.59;;;13.06;100.00
73860;BME280;62197;51.632;13.700;2023-04-29T08:06:01;99800.09;;;13.37;100.00
73860;BME280;62197;51.632;13.700;2023-04-29T08:08:27;99811.97;;;14.28;100.00
73860;BME280;62197;51.632;13.700;2023-04-29T08:10:53;99816.13;;;14.15;100.00
73860;BME280;62197;51.632;13.700;2023-04-29T08:13:18;99814.78;;;13.88;100.00
73860;BME280;62197;51.632;13.700;2023-04-29T08:15:43;99815.06;;;13.71;100.00
73860;BME280;62197;51.632;13.700;2023-04-29T08:18:09;99818.38;;;13.63;100.00
73860;BME280;62197;51.632;13.700;2023-04-29T08:20:34;99805.63;;;13.27;100.00
73860;BME280;62197;51.632;13.700;2023-04-29T08:23:00;99810.34;;;13.51;100.00
73860;BME280;62197;51.632;13.700;2023-04-29T08:25:25;99812.84;;;13.43;100.00
73860;BME280;62197;51.632;13.700;2023-04-29T08:27:51;99810.84;;;13.18;100.00
73860;BME280;62197;51.632;13.700;2023-04-29T08:30:16;99813.59;;;13.03;100.00
73860;BME280;62197;51.632;13.700;2023-04-29T08:32:42;99819.34;;;12.87;100.00
73860;BME280;62197;51.632;13.700;2023-04-29T08:35:07;99829.59;;;12.86;100.00
73860;BME280;62197;51.632;13.700;2023-04-29T08:37:33;99822.66;;;12.84;100.00
73860;BME280;62197;51.632;13.700;2023-04-29T08:39:58;99829.41;;;13.13;100.00
73860;BME280;62197;51.632;13.700;2023-04-29T08:42:44;99834.88;;;12.98;100.00
73860;BME280;62197;51.632;13.700;2023-04-29T08:45:09;99836.81;;;12.97;100.00
73860;BME280;62197;51.632;13.700;2023-04-29T08:47:35;99847.16;;;13.17;100.00
73860;BME280;62197;51.632;13.700;2023-04-29T08:50:03;99838.41;;;12.73;100.00
73860;BME280;62197;51.632;13.700;2023-04-29T08:52:30;99847.00;;;12.77;100.00
73860;BME280;62197;51.632;13.700;2023-04-29T08:54:56;99849.19;;;12.75;100.00
73860;BME280;62197;51.632;13.700;2023-04-29T08:57:24;99853.63;;;12.76;100.00
73860;BME280;62197;51.632;13.700;2023-04-29T08:59:50;99850.84;;;12.70;100.00
73860;BME280;62197;51.632;13.700;2023-04-29T09:02:16;99853.66;;;12.81;100.00
73860;BME280;62197;51.632;13.700;2023-04-29T09:05:04;99856.00;;;13.09;100.00
73860;BME280;62197;51.632;13.700;2023-04-29T09:07:34;99861.03;;;13.32;100.00
73860;BME280;62197;51.632;13.700;2023-04-29T09:10:01;99869.41;;;13.67;100.00
73860;BME280;62197;51.632;13.700;2023-04-29T09:12:28;99869.41;;;13.92;100.00
73860;BME280;62197;51.632;13.700;2023-04-29T09:14:55;99868.84;;;13.80;100.00
73860;BME280;62197;51.632;13.700;2023-04-29T09:17:43;99871.06;;;13.78;100.00
73860;BME280;62197;51.632;13.700;2023-04-29T09:22:51;99873.28;;;13.56;100.00
73860;BME280;62197;51.632;13.700;2023-04-29T09:25:17;99882.72;;;13.65;100.00
73860;BME280;62197;51.632;13.700;2023-04-29T09:27:42;99881.56;;;13.31;100.00
73860;BME280;62197;51.632;13.700;2023-04-29T09:30:08;99892.03;;;13.14;100.00
73860;BME280;62197;51.632;13.700;2023-04-29T09:32:34;99889.94;;;12.89;100.00
73860;BME280;62197;51.632;13.700;2023-04-29T09:35:23;99906.22;;;12.76;100.00
73860;BME280;62197;51.632;13.700;2023-04-29T09:37:50;99911.09;;;12.48;100.00
73860;BME280;62197;51.632;13.700;2023-04-29T09:40:27;99903.72;;;12.22;100.00
73860;BME280;62197;51.632;13.700;2023-04-29T09:42:54;99914.97;;;12.11;100.00
73860;BME280;62197;51.632;13.700;2023-04-29T09:45:33;99931.84;;;12.14;100.00
73860;BME280;62197;51.632;13.700;2023-04-29T09:48:03;99920.94;;;11.98;100.00
73860;BME280;62197;51.632;13.700;2023-04-29T09:50:30;99928.97;;;11.99;100.00
73860;BME280;62197;51.632;13.700;2023-04-29T09:52:55;99929.28;;;12.03;100.00
73860;BME280;62197;51.632;13.700;2023-04-29T09:55:21;99935.75;;;11.87;100.00
73860;BME280;62197;51.632;13.700;2023-04-29T09:57:47;99944.13;;;11.92;100.00
73860;BME280;62197;51.632;13.700;2023-04-29T10:00:13;99955.19;;;11.92;100.00
73860;BME280;62197;51.632;13.700;2023-04-29T10:02:40;99950.25;;;11.99;100.00
73860;BME280;62197;51.632;13.700;2023-04-29T10:05:06;99950.94;;;12.16;100.00
73860;BME280;62197;51.632;13.700;2023-04-29T10:07:33;99946.44;;;12.36;100.00
73860;BME280;62197;51.632;13.700;2023-04-29T10:09:58;99951.84;;;12.21;100.00
73860;BME280;62197;51.632;13.700;2023-04-29T10:12:24;99949.69;;;12.28;100.00
73860;BME280;62197;51.632;13.700;2023-04-29T10:14:57;99955.28;;;12.38;100.00
73860;BME280;62197;51.632;13.700;2023-04-29T10:17:42;99956.53;;;12.21;100.00
73860;BME280;62197;51.632;13.700;2023-04-29T10:20:13;99963.75;;;11.90;100.00
73860;BME280;62197;51.632;13.700;2023-04-29T10:22:46;99970.81;;;11.81;100.00
73860;BME280;62197;51.632;13.700;2023-04-29T10:25:17;99981.00;;;11.54;100.00
73860;BME280;62197;51.632;13.700;2023-04-29T10:27:43;99969.97;;;11.54;100.00
73860;BME280;62197;51.632;13.700;2023-04-29T10:30:15;99975.91;;;11.41;100.00
73860;BME280;62197;51.632;13.700;2023-04-29T10:32:41;99983.81;;;11.32;100.00
73860;BME280;62197;51.632;13.700;2023-04-29T10:35:09;99983.59;;;11.39;100.00
73860;BME280;62197;51.632;13.700;2023-04-29T10:37:35;99978.66;;;11.41;100.00
73860;BME280;62197;51.632;13.700;2023-04-29T10:40:10;99985.78;;;11.37;100.00
73860;BME280;62197;51.632;13.700;2023-04-29T10:42:43;99989.59;;;11.09;100.00
73860;BME280;62197;51.632;13.700;2023-04-29T10:45:19;99992.91;;;11.11;100.00
73860;BME280;62197;51.632;13.700;2023-04-29T10:53:13;100007.66;;;11.17;100.00
73860;BME280;62197;51.632;13.700;2023-04-29T10:55:39;99999.94;;;11.19;100.00
73860;BME280;62197;51.632;13.700;2023-04-29T10:58:05;100006.38;;;11.24;100.00
73860;BME280;62197;51.632;13.700;2023-04-29T11:00:51;99995.69;;;11.33;100.00
73860;BME280;62197;51.632;13.700;2023-04-29T11:03:50;100002.94;;;11.39;100.00
73860;BME280;62197;51.632;13.700;2023-04-29T11:06:21;99999.03;;;11.35;100.00
73860;BME280;62197;51.632;13.700;2023-04-29T11:08:59;100010.72;;;11.20;100.00
73860;BME280;62197;51.632;13.700;2023-04-29T11:11:25;100003.53;;;11.41;100.00
73860;BME280;62197;51.632;13.700;2023-04-29T11:13:51;100012.88;;;11.83;100.00
73860;BME280;62197;51.632;13.700;2023-04-29T11:16:24;100021.13;;;11.78;100.00
73860;BME280;62197;51.632;13.700;2023-04-29T11:19:06;100020.94;;;11.63;100.00
73860;BME280;62197;51.632;13.700;2023-04-29T11:21:36;100020.94;;;11.63;100.00
73860;BME280;62197;51.632;13.700;2023-04-29T11:24:02;100022.47;;;11.75;100.00
73860;BME280;62197;51.632;13.700;2023-04-29T11:26:28;100027.94;;;11.49;100.00
73860;BME280;62197;51.632;13.700;2023-04-29T11:28:55;100031.09;;;11.57;100.00
73860;BME280;62197;51.632;13.700;2023-04-29T11:31:25;100031.16;;;11.41;100.00
73860;BME280;62197;51.632;13.700;2023-04-29T11:33:52;100034.88;;;11.30;100.00
73860;BME280;62197;51.632;13.700;2023-04-29T11:36:18;100040.41;;;11.30;100.00
73860;BME280;62197;51.632;13.700;2023-04-29T11:38:44;100038.31;;;10.99;100.00
73860;BME280;62197;51.632;13.700;2023-04-29T11:41:10;100043.63;;;10.83;100.00
73860;BME280;62197;51.632;13.700;2023-04-29T11:43:35;100053.56;;;11.01;100.00
73860;BME280;62197;51.632;13.700;2023-04-29T11:46:11;100058.09;;;10.90;100.00
73860;BME280;62197;51.632;13.700;2023-04-29T11:48:36;100062.44;;;10.86;100.00
73860;BME280;62197;51.632;13.700;2023-04-29T11:51:01;100066.78;;;10.82;100.00
73860;BME280;62197;51.632;13.700;2023-04-29T11:53:27;100073.41;;;10.81;100.00
73860;BME280;62197;51.632;13.700;2023-04-29T11:55:53;100072.00;;;10.79;100.00
73860;BME280;62197;51.632;13.700;2023-04-29T11:58:23;100074.50;;;10.64;100.00
73860;BME280;62197;51.632;13.700;2023-04-29T12:00:49;100075.84;;;10.61;100.00
73860;BME280;62197;51.632;13.700;2023-04-29T12:03:17;100082.97;;;10.41;100.00
73860;BME280;62197;51.632;13.700;2023-04-29T12:05:53;100084.03;;;10.40;100.00
73860;BME280;62197;51.632;13.700;2023-04-29T12:08:23;100083.88;;;10.46;100.00
73860;BME280;62197;51.632;13.700;2023-04-29T12:10:49;100085.22;;;10.60;100.00
73860;BME280;62197;51.632;13.700;2023-04-29T12:13:16;100083.69;;;10.86;100.00
73860;BME280;62197;51.632;13.700;2023-04-29T12:15:44;100090.50;;;11.17;100.00
73860;BME280;62197;51.632;13.700;2023-04-29T12:18:10;100090.28;;;11.40;100.00
73860;BME280;62197;51.632;13.700;2023-04-29T12:20:36;100097.88;;;11.11;100.00
73860;BME280;62197;51.632;13.700;2023-04-29T12:23:17;100101.91;;;11.04;100.00
73860;BME280;62197;51.632;13.700;2023-04-29T12:28:16;100099.56;;;11.12;100.00
73860;BME280;62197;51.632;13.700;2023-04-29T12:30:48;100102.31;;;10.96;100.00
73860;BME280;62197;51.632;13.700;2023-04-29T12:33:24;100109.97;;;10.72;100.00
73860;BME280;62197;51.632;13.700;2023-04-29T12:35:51;100111.81;;;10.66;100.00
73860;BME280;62197;51.632;13.700;2023-04-29T12:38:21;100115.09;;;10.80;100.00
73860;BME280;62197;51.632;13.700;2023-04-29T12:40:47;100118.34;;;10.60;100.00
73860;BME280;62197;51.632;13.700;2023-04-29T12:43:12;100117.38;;;10.38;100.00
73860;BME280;62197;51.632;13.700;2023-04-29T12:45:38;100132.16;;;10.32;100.00
73860;BME280;62197;51.632;13.700;2023-04-29T12:48:03;100126.16;;;10.35;100.00
73860;BME280;62197;51.632;13.700;2023-04-29T12:50:32;100125.56;;;10.33;100.00
73860;BME280;62197;51.632;13.700;2023-04-29T12:52:59;100121.97;;;10.33;100.00
73860;BME280;62197;51.632;13.700;2023-04-29T12:55:25;100136.03;;;10.31;100.00